sensor_id;sensor_type;location;lat;lon;timestamp;temperature;humidity
26254;DHT22;53339;51.378;0.094;2024-02-15T00:00:55;12.60;91.30
26254;DHT22;53339;51.378;0.094;2024-02-15T00:03:26;12.60;91.30
26254;DHT22;53339;51.378;0.094;2024-02-15T00:05:53;12.60;91.30
26254;DHT22;53339;51.378;0.094;2024-02-15T00:08:21;12.60;91.30
26254;DHT22;53339;51.378;0.094;2024-02-15T00:10:49;12.60;91.30
26254;DHT22;53339;51.378;0.094;2024-02-15T00:13:16;12.50;91.30
26254;DHT22;53339;51.378;0.094;2024-02-15T00:15:44;12.60;91.40
26254;DHT22;53339;51.378;0.094;2024-02-15T00:18:18;12.60;91.30
26254;DHT22;53339;51.378;0.094;2024-02-15T00:20:46;12.60;91.40
26254;DHT22;53339;51.378;0.094;2024-02-15T00:23:13;12.60;91.40
26254;DHT22;53339;51.378;0.094;2024-02-15T00:25:43;12.60;91.50
26254;DHT22;53339;51.378;0.094;2024-02-15T00:28:14;12.50;91.50
26254;DHT22;53339;51.378;0.094;2024-02-15T00:30:41;12.60;91.50
26254;DHT22;53339;51.378;0.094;2024-02-15T00:33:09;12.60;91.50
26254;DHT22;53339;51.378;0.094;2024-02-15T00:35:37;12.60;91.60
26254;DHT22;53339;51.378;0.094;2024-02-15T00:38:05;12.60;91.60
26254;DHT22;53339;51.378;0.094;2024-02-15T00:40:34;12.60;91.60
26254;DHT22;53339;51.378;0.094;2024-02-15T00:43:02;12.60;91.60
26254;DHT22;53339;51.378;0.094;2024-02-15T00:45:30;12.60;91.60
26254;DHT22;53339;51.378;0.094;2024-02-15T00:47:58;12.70;91.70
26254;DHT22;53339;51.378;0.094;2024-02-15T00:50:26;12.60;91.70
26254;DHT22;53339;51.378;0.094;2024-02-15T00:52:53;12.60;91.70
26254;DHT22;53339;51.378;0.094;2024-02-15T00:55:21;12.60;91.70
26254;DHT22;53339;51.378;0.094;2024-02-15T00:57:49;12.60;91.70
26254;DHT22;53339;51.378;0.094;2024-02-15T01:00:16;12.60;91.70
26254;DHT22;53339;51.378;0.094;2024-02-15T01:02:44;12.60;91.70
26254;DHT22;53339;51.378;0.094;2024-02-15T01:05:13;12.60;91.70
26254;DHT22;53339;51.378;0.094;2024-02-15T01:07:43;12.60;91.80
26254;DHT22;53339;51.378;0.094;2024-02-15T01:10:10;12.60;91.80
26254;DHT22;53339;51.378;0.094;2024-02-15T01:12:38;12.60;91.80
26254;DHT22;53339;51.378;0.094;2024-02-15T01:15:07;12.60;91.80
26254;DHT22;53339;51.378;0.094;2024-02-15T01:17:35;12.70;91.90
26254;DHT22;53339;51.378;0.094;2024-02-15T01:20:03;12.60;91.90
26254;DHT22;53339;51.378;0.094;2024-02-15T01:22:31;12.60;91.90
26254;DHT22;53339;51.378;0.094;2024-02-15T01:24:59;12.60;91.90
26254;DHT22;53339;51.378;0.094;2024-02-15T01:27:27;12.70;91.90
26254;DHT22;53339;51.378;0.094;2024-02-15T01:29:57;12.70;91.90
26254;DHT22;53339;51.378;0.094;2024-02-15T01:32:25;12.70;92.00
26254;DHT22;53339;51.378;0.094;2024-02-15T01:34:53;12.70;92.00
26254;DHT22;53339;51.378;0.094;2024-02-15T01:37:22;12.70;92.00
26254;DHT22;53339;51.378;0.094;2024-02-15T01:39:50;12.70;92.00
26254;DHT22;53339;51.378;0.094;2024-02-15T01:42:18;12.70;92.00
26254;DHT22;53339;51.378;0.094;2024-02-15T01:44:46;12.70;92.00
26254;DHT22;53339;51.378;0.094;2024-02-15T01:47:18;12.70;92.00
26254;DHT22;53339;51.378;0.094;2024-02-15T01:49:52;12.70;92.00
26254;DHT22;53339;51.378;0.094;2024-02-15T01:52:23;12.70;92.00
26254;DHT22;53339;51.378;0.094;2024-02-15T01:54:52;12.70;92.00
26254;DHT22;53339;51.378;0.094;2024-02-15T01:57:21;12.70;92.00
26254;DHT22;53339;51.378;0.094;2024-02-15T01:59:52;12.70;92.10
26254;DHT22;53339;51.378;0.094;2024-02-15T02:02:25;12.70;92.10
26254;DHT22;53339;51.378;0.094;2024-02-15T02:04:56;12.70;92.10
26254;DHT22;53339;51.378;0.094;2024-02-15T02:07:24;12.70;92.10
26254;DHT22;53339;51.378;0.094;2024-02-15T02:09:52;12.70;92.10
26254;DHT22;53339;51.378;0.094;2024-02-15T02:12:19;12.70;92.10
26254;DHT22;53339;51.378;0.094;2024-02-15T02:14:47;12.70;92.10
26254;DHT22;53339;51.378;0.094;2024-02-15T02:17:15;12.70;92.10
26254;DHT22;53339;51.378;0.094;2024-02-15T02:19:43;12.70;92.20
26254;DHT22;53339;51.378;0.094;2024-02-15T02:22:11;12.70;92.10
26254;DHT22;53339;51.378;0.094;2024-02-15T02:27:22;12.70;92.20
26254;DHT22;53339;51.378;0.094;2024-02-15T02:29:51;12.70;92.20
26254;DHT22;53339;51.378;0.094;2024-02-15T02:32:18;12.70;92.20
26254;DHT22;53339;51.378;0.094;2024-02-15T02:34:46;12.70;92.20
26254;DHT22;53339;51.378;0.094;2024-02-15T02:37:14;12.70;92.20
26254;DHT22;53339;51.378;0.094;2024-02-15T02:39:42;12.70;92.20
26254;DHT22;53339;51.378;0.094;2024-02-15T02:42:10;12.70;92.20
26254;DHT22;53339;51.378;0.094;2024-02-15T02:44:38;12.70;92.20
26254;DHT22;53339;51.378;0.094;2024-02-15T02:47:06;12.70;92.20
26254;DHT22;53339;51.378;0.094;2024-02-15T02:49:37;12.70;92.20
26254;DHT22;53339;51.378;0.094;2024-02-15T02:52:05;12.70;92.20
26254;DHT22;53339;51.378;0.094;2024-02-15T02:54:32;12.70;92.30
26254;DHT22;53339;51.378;0.094;2024-02-15T02:57:03;12.70;92.20
26254;DHT22;53339;51.378;0.094;2024-02-15T02:59:34;12.70;92.30
26254;DHT22;53339;51.378;0.094;2024-02-15T03:02:02;12.70;92.20
26254;DHT22;53339;51.378;0.094;2024-02-15T03:04:32;12.60;92.20
26254;DHT22;53339;51.378;0.094;2024-02-15T03:07:00;12.60;92.20
26254;DHT22;53339;51.378;0.094;2024-02-15T03:09:28;12.60;92.20
26254;DHT22;53339;51.378;0.094;2024-02-15T03:11:57;12.60;92.20
26254;DHT22;53339;51.378;0.094;2024-02-15T03:14:24;12.60;92.20
26254;DHT22;53339;51.378;0.094;2024-02-15T03:16:52;12.60;92.20
26254;DHT22;53339;51.378;0.094;2024-02-15T03:19:22;12.50;92.20
26254;DHT22;53339;51.378;0.094;2024-02-15T03:21:50;12.60;92.30
26254;DHT22;53339;51.378;0.094;2024-02-15T03:24:20;12.60;92.30
26254;DHT22;53339;51.378;0.094;2024-02-15T03:26:48;12.60;92.30
26254;DHT22;53339;51.378;0.094;2024-02-15T03:29:15;12.60;92.30
26254;DHT22;53339;51.378;0.094;2024-02-15T03:31:43;12.60;92.30
26254;DHT22;53339;51.378;0.094;2024-02-15T03:34:12;12.60;92.40
26254;DHT22;53339;51.378;0.094;2024-02-15T03:36:42;12.60;92.30
26254;DHT22;53339;51.378;0.094;2024-02-15T03:39:09;12.60;92.30
26254;DHT22;53339;51.378;0.094;2024-02-15T03:41:37;12.60;92.30
26254;DHT22;53339;51.378;0.094;2024-02-15T03:44:05;12.60;92.40
26254;DHT22;53339;51.378;0.094;2024-02-15T03:46:33;12.60;92.40
26254;DHT22;53339;51.378;0.094;2024-02-15T03:49:00;12.60;92.40
26254;DHT22;53339;51.378;0.094;2024-02-15T03:51:28;12.60;92.40
26254;DHT22;53339;51.378;0.094;2024-02-15T03:53:56;12.60;92.40
26254;DHT22;53339;51.378;0.094;2024-02-15T03:56:24;12.60;92.40
26254;DHT22;53339;51.378;0.094;2024-02-15T03:58:52;12.60;92.40
26254;DHT22;53339;51.378;0.094;2024-02-15T04:01:19;12.60;92.40
26254;DHT22;53339;51.378;0.094;2024-02-15T04:03:47;12.60;92.40
26254;DHT22;53339;51.378;0.094;2024-02-15T04:06:15;12.60;92.40
26254;DHT22;53339;51.378;0.094;2024-02-15T04:08:43;12.60;92.40
26254;DHT22;53339;51.378;0.094;2024-02-15T04:11:11;12.60;92.40
26254;DHT22;53339;51.378;0.094;2024-02-15T04:13:39;12.60;92.40
26254;DHT22;53339;51.378;0.094;2024-02-15T04:16:06;12.60;92.40
26254;DHT22;53339;51.378;0.094;2024-02-15T04:18:35;12.60;92.40
26254;DHT22;53339;51.378;0.094;2024-02-15T04:21:03;12.60;92.50
26254;DHT22;53339;51.378;0.094;2024-02-15T04:23:33;12.60;92.50
26254;DHT22;53339;51.378;0.094;2024-02-15T04:26:01;12.60;92.50
26254;DHT22;53339;51.378;0.094;2024-02-15T04:28:29;12.60;92.50
26254;DHT22;53339;51.378;0.094;2024-02-15T04:30:56;12.70;92.50
26254;DHT22;53339;51.378;0.094;2024-02-15T04:33:24;12.70;92.50
26254;DHT22;53339;51.378;0.094;2024-02-15T04:35:52;12.70;92.50
26254;DHT22;53339;51.378;0.094;2024-02-15T04:38:20;12.70;92.50
26254;DHT22;53339;51.378;0.094;2024-02-15T04:40:47;12.70;92.60
26254;DHT22;53339;51.378;0.094;2024-02-15T04:43:16;12.70;92.60
26254;DHT22;53339;51.378;0.094;2024-02-15T04:45:45;12.80;92.60
26254;DHT22;53339;51.378;0.094;2024-02-15T04:48:13;12.80;92.60
26254;DHT22;53339;51.378;0.094;2024-02-15T04:50:41;12.80;92.60
26254;DHT22;53339;51.378;0.094;2024-02-15T04:53:11;12.80;92.60
26254;DHT22;53339;51.378;0.094;2024-02-15T04:55:38;12.80;92.60
26254;DHT22;53339;51.378;0.094;2024-02-15T04:58:06;12.80;92.60
26254;DHT22;53339;51.378;0.094;2024-02-15T05:00:34;12.90;92.70
26254;DHT22;53339;51.378;0.094;2024-02-15T05:03:04;12.90;92.60
26254;DHT22;53339;51.378;0.094;2024-02-15T05:05:31;12.90;92.70
26254;DHT22;53339;51.378;0.094;2024-02-15T05:07:59;12.90;92.70
26254;DHT22;53339;51.378;0.094;2024-02-15T05:10:28;12.90;92.70
26254;DHT22;53339;51.378;0.094;2024-02-15T05:12:56;12.90;92.70
26254;DHT22;53339;51.378;0.094;2024-02-15T05:15:24;12.90;92.60
26254;DHT22;53339;51.378;0.094;2024-02-15T05:17:53;12.90;92.70
26254;DHT22;53339;51.378;0.094;2024-02-15T05:20:21;12.90;92.70
26254;DHT22;53339;51.378;0.094;2024-02-15T05:22:49;12.90;92.70
26254;DHT22;53339;51.378;0.094;2024-02-15T05:25:21;13.00;92.70
26254;DHT22;53339;51.378;0.094;2024-02-15T05:27:51;13.00;92.70
26254;DHT22;53339;51.378;0.094;2024-02-15T05:30:21;13.00;92.70
26254;DHT22;53339;51.378;0.094;2024-02-15T05:32:49;13.00;92.70
26254;DHT22;53339;51.378;0.094;2024-02-15T05:35:17;13.00;92.70
26254;DHT22;53339;51.378;0.094;2024-02-15T05:37:45;13.00;92.70
26254;DHT22;53339;51.378;0.094;2024-02-15T05:40:13;13.00;92.70
26254;DHT22;53339;51.378;0.094;2024-02-15T05:42:45;13.00;92.70
26254;DHT22;53339;51.378;0.094;2024-02-15T05:45:34;13.10;92.70
26254;DHT22;53339;51.378;0.094;2024-02-15T05:48:03;13.10;92.70
26254;DHT22;53339;51.378;0.094;2024-02-15T05:50:35;13.10;92.70
26254;DHT22;53339;51.378;0.094;2024-02-15T05:53:02;13.10;92.70
26254;DHT22;53339;51.378;0.094;2024-02-15T05:55:31;13.10;92.70
26254;DHT22;53339;51.378;0.094;2024-02-15T05:58:02;13.10;92.70
26254;DHT22;53339;51.378;0.094;2024-02-15T06:00:30;13.10;92.60
26254;DHT22;53339;51.378;0.094;2024-02-15T06:02:58;13.10;92.60
26254;DHT22;53339;51.378;0.094;2024-02-15T06:05:26;13.10;92.60
26254;DHT22;53339;51.378;0.094;2024-02-15T06:07:53;13.00;92.50
26254;DHT22;53339;51.378;0.094;2024-02-15T06:10:21;13.00;92.50
26254;DHT22;53339;51.378;0.094;2024-02-15T06:12:49;12.90;92.40
26254;DHT22;53339;51.378;0.094;2024-02-15T06:15:16;12.90;92.40
26254;DHT22;53339;51.378;0.094;2024-02-15T06:17:48;12.80;92.40
26254;DHT22;53339;51.378;0.094;2024-02-15T06:20:17;12.80;92.30
26254;DHT22;53339;51.378;0.094;2024-02-15T06:22:49;12.80;92.30
26254;DHT22;53339;51.378;0.094;2024-02-15T06:25:19;12.70;92.30
26254;DHT22;53339;51.378;0.094;2024-02-15T06:27:49;12.70;92.30
26254;DHT22;53339;51.378;0.094;2024-02-15T06:30:18;12.70;92.30
26254;DHT22;53339;51.378;0.094;2024-02-15T06:33:05;12.70;92.20
26254;DHT22;53339;51.378;0.094;2024-02-15T06:35:51;12.60;92.20
26254;DHT22;53339;51.378;0.094;2024-02-15T06:38:37;12.60;92.10
26254;DHT22;53339;51.378;0.094;2024-02-15T06:41:23;12.50;92.20
26254;DHT22;53339;51.378;0.094;2024-02-15T06:43:53;12.40;92.10
26254;DHT22;53339;51.378;0.094;2024-02-15T06:46:21;12.40;92.10
26254;DHT22;53339;51.378;0.094;2024-02-15T06:48:48;12.40;92.10
26254;DHT22;53339;51.378;0.094;2024-02-15T06:51:16;12.40;92.10
26254;DHT22;53339;51.378;0.094;2024-02-15T06:53:44;12.30;92.00
26254;DHT22;53339;51.378;0.094;2024-02-15T06:56:12;12.30;92.00
26254;DHT22;53339;51.378;0.094;2024-02-15T06:58:41;12.30;92.00
26254;DHT22;53339;51.378;0.094;2024-02-15T07:01:09;12.30;92.00
26254;DHT22;53339;51.378;0.094;2024-02-15T07:03:38;12.20;92.00
26254;DHT22;53339;51.378;0.094;2024-02-15T07:06:06;12.20;92.00
26254;DHT22;53339;51.378;0.094;2024-02-15T07:08:34;12.20;92.00
26254;DHT22;53339;51.378;0.094;2024-02-15T07:11:03;12.20;92.00
26254;DHT22;53339;51.378;0.094;2024-02-15T07:13:31;12.20;92.00
26254;DHT22;53339;51.378;0.094;2024-02-15T07:15:59;12.20;92.00
26254;DHT22;53339;51.378;0.094;2024-02-15T07:18:27;12.20;92.00
26254;DHT22;53339;51.378;0.094;2024-02-15T07:20:56;12.20;92.10
26254;DHT22;53339;51.378;0.094;2024-02-15T07:23:27;12.20;92.10
26254;DHT22;53339;51.378;0.094;2024-02-15T07:25:55;12.20;92.10
26254;DHT22;53339;51.378;0.094;2024-02-15T07:28:23;12.20;92.20
26254;DHT22;53339;51.378;0.094;2024-02-15T07:30:53;12.20;92.20
26254;DHT22;53339;51.378;0.094;2024-02-15T07:33:22;12.20;92.20
26254;DHT22;53339;51.378;0.094;2024-02-15T07:35:51;12.20;92.20
26254;DHT22;53339;51.378;0.094;2024-02-15T07:38:19;12.30;92.20
26254;DHT22;53339;51.378;0.094;2024-02-15T07:40:51;12.30;92.20
26254;DHT22;53339;51.378;0.094;2024-02-15T07:43:18;12.30;92.20
26254;DHT22;53339;51.378;0.094;2024-02-15T07:45:46;12.30;92.20
26254;DHT22;53339;51.378;0.094;2024-02-15T07:48:17;12.40;92.20
26254;DHT22;53339;51.378;0.094;2024-02-15T07:50:45;12.40;92.10
26254;DHT22;53339;51.378;0.094;2024-02-15T07:53:12;12.40;92.10
26254;DHT22;53339;51.378;0.094;2024-02-15T07:55:41;12.40;92.00
26254;DHT22;53339;51.378;0.094;2024-02-15T07:58:09;12.40;92.00
26254;DHT22;53339;51.378;0.094;2024-02-15T08:00:37;12.40;92.00
26254;DHT22;53339;51.378;0.094;2024-02-15T08:03:05;12.40;91.90
26254;DHT22;53339;51.378;0.094;2024-02-15T08:05:33;12.40;91.90
26254;DHT22;53339;51.378;0.094;2024-02-15T08:08:01;12.40;91.90
26254;DHT22;53339;51.378;0.094;2024-02-15T08:10:31;12.40;91.90
26254;DHT22;53339;51.378;0.094;2024-02-15T08:12:59;12.50;91.90
26254;DHT22;53339;51.378;0.094;2024-02-15T08:15:26;12.40;91.90
26254;DHT22;53339;51.378;0.094;2024-02-15T08:17:57;12.50;91.90
26254;DHT22;53339;51.378;0.094;2024-02-15T08:20:25;12.50;91.90
26254;DHT22;53339;51.378;0.094;2024-02-15T08:22:53;12.50;91.80
26254;DHT22;53339;51.378;0.094;2024-02-15T08:25:21;12.50;91.80
26254;DHT22;53339;51.378;0.094;2024-02-15T08:27:49;12.50;91.70
26254;DHT22;53339;51.378;0.094;2024-02-15T08:30:18;12.50;91.70
26254;DHT22;53339;51.378;0.094;2024-02-15T08:32:49;12.50;91.70
26254;DHT22;53339;51.378;0.094;2024-02-15T08:35:17;12.50;91.70
26254;DHT22;53339;51.378;0.094;2024-02-15T08:37:45;12.50;91.70
26254;DHT22;53339;51.378;0.094;2024-02-15T08:40:17;12.50;91.70
26254;DHT22;53339;51.378;0.094;2024-02-15T08:42:47;12.50;91.70
26254;DHT22;53339;51.378;0.094;2024-02-15T08:45:15;12.50;91.70
26254;DHT22;53339;51.378;0.094;2024-02-15T08:47:43;12.50;91.70
26254;DHT22;53339;51.378;0.094;2024-02-15T08:50:11;12.50;91.70
26254;DHT22;53339;51.378;0.094;2024-02-15T08:52:40;12.50;91.70
26254;DHT22;53339;51.378;0.094;2024-02-15T08:55:09;12.50;91.70
26254;DHT22;53339;51.378;0.094;2024-02-15T08:57:37;12.50;91.70
26254;DHT22;53339;51.378;0.094;2024-02-15T09:00:08;12.50;91.70
26254;DHT22;53339;51.378;0.094;2024-02-15T09:02:44;12.60;91.70
26254;DHT22;53339;51.378;0.094;2024-02-15T09:05:13;12.60;91.70
26254;DHT22;53339;51.378;0.094;2024-02-15T09:07:46;12.60;91.60
26254;DHT22;53339;51.378;0.094;2024-02-15T09:10:18;12.60;91.70
26254;DHT22;53339;51.378;0.094;2024-02-15T09:12:46;12.60;91.70
26254;DHT22;53339;51.378;0.094;2024-02-15T09:15:17;12.60;91.70
26254;DHT22;53339;51.378;0.094;2024-02-15T09:17:45;12.70;91.70
26254;DHT22;53339;51.378;0.094;2024-02-15T09:20:15;12.70;91.70
26254;DHT22;53339;51.378;0.094;2024-02-15T09:22:51;12.80;91.70
26254;DHT22;53339;51.378;0.094;2024-02-15T09:25:20;12.80;91.70
26254;DHT22;53339;51.378;0.094;2024-02-15T09:27:51;12.90;91.70
26254;DHT22;53339;51.378;0.094;2024-02-15T09:30:21;12.90;91.80
26254;DHT22;53339;51.378;0.094;2024-02-15T09:32:52;13.00;91.80
26254;DHT22;53339;51.378;0.094;2024-02-15T09:35:20;13.00;91.70
26254;DHT22;53339;51.378;0.094;2024-02-15T09:37:49;13.00;91.70
26254;DHT22;53339;51.378;0.094;2024-02-15T09:40:18;13.10;91.70
26254;DHT22;53339;51.378;0.094;2024-02-15T09:42:47;13.20;91.70
26254;DHT22;53339;51.378;0.094;2024-02-15T09:45:15;13.20;91.70
26254;DHT22;53339;51.378;0.094;2024-02-15T09:47:45;13.20;91.70
26254;DHT22;53339;51.378;0.094;2024-02-15T09:50:17;13.20;91.60
26254;DHT22;53339;51.378;0.094;2024-02-15T09:52:49;13.30;91.60
26254;DHT22;53339;51.378;0.094;2024-02-15T09:55:17;13.30;91.60
26254;DHT22;53339;51.378;0.094;2024-02-15T09:57:45;13.30;91.60
26254;DHT22;53339;51.378;0.094;2024-02-15T10:00:20;13.30;91.60
26254;DHT22;53339;51.378;0.094;2024-02-15T10:02:50;13.40;91.60
26254;DHT22;53339;51.378;0.094;2024-02-15T10:05:21;13.40;91.60
26254;DHT22;53339;51.378;0.094;2024-02-15T10:07:49;13.50;91.60
26254;DHT22;53339;51.378;0.094;2024-02-15T10:10:18;13.40;91.50
26254;DHT22;53339;51.378;0.094;2024-02-15T10:12:49;13.50;91.50
26254;DHT22;53339;51.378;0.094;2024-02-15T10:15:39;13.50;91.50
26254;DHT22;53339;51.378;0.094;2024-02-15T10:18:09;13.60;91.50
26254;DHT22;53339;51.378;0.094;2024-02-15T10:20:40;13.50;91.50
26254;DHT22;53339;51.378;0.094;2024-02-15T10:23:13;13.60;91.50
26254;DHT22;53339;51.378;0.094;2024-02-15T10:25:45;13.60;91.50
26254;DHT22;53339;51.378;0.094;2024-02-15T10:28:19;13.60;91.60
26254;DHT22;53339;51.378;0.094;2024-02-15T10:30:47;13.60;91.50
26254;DHT22;53339;51.378;0.094;2024-02-15T10:33:26;13.60;91.40
26254;DHT22;53339;51.378;0.094;2024-02-15T10:36:06;13.70;91.40
26254;DHT22;53339;51.378;0.094;2024-02-15T10:38:36;13.70;91.40
26254;DHT22;53339;51.378;0.094;2024-02-15T10:41:05;13.70;91.30
26254;DHT22;53339;51.378;0.094;2024-02-15T10:43:33;13.70;91.30
26254;DHT22;53339;51.378;0.094;2024-02-15T10:46:01;13.70;91.40
26254;DHT22;53339;51.378;0.094;2024-02-15T10:48:30;13.70;91.40
26254;DHT22;53339;51.378;0.094;2024-02-15T10:50:59;13.80;91.40
26254;DHT22;53339;51.378;0.094;2024-02-15T10:53:30;13.80;91.40
26254;DHT22;53339;51.378;0.094;2024-02-15T10:56:18;13.90;91.30
26254;DHT22;53339;51.378;0.094;2024-02-15T10:59:28;13.90;91.30
26254;DHT22;53339;51.378;0.094;2024-02-15T11:01:50;14.00;91.30
26254;DHT22;53339;51.378;0.094;2024-02-15T11:04:23;14.10;91.30
26254;DHT22;53339;51.378;0.094;2024-02-15T11:06:55;14.10;91.00
26254;DHT22;53339;51.378;0.094;2024-02-15T11:09:23;14.10;90.70
26254;DHT22;53339;51.378;0.094;2024-02-15T11:11:52;14.10;90.60
26254;DHT22;53339;51.378;0.094;2024-02-15T11:14:30;14.20;90.50
26254;DHT22;53339;51.378;0.094;2024-02-15T11:17:00;14.20;90.50
26254;DHT22;53339;51.378;0.094;2024-02-15T11:19:40;14.30;90.30
26254;DHT22;53339;51.378;0.094;2024-02-15T11:22:17;14.30;90.30
26254;DHT22;53339;51.378;0.094;2024-02-15T11:24:50;14.40;90.00
26254;DHT22;53339;51.378;0.094;2024-02-15T11:30:03;14.60;89.90
26254;DHT22;53339;51.378;0.094;2024-02-15T11:35:16;14.70;90.00
26254;DHT22;53339;51.378;0.094;2024-02-15T11:40:26;14.90;89.80
26254;DHT22;53339;51.378;0.094;2024-02-15T11:42:58;14.90;89.70
26254;DHT22;53339;51.378;0.094;2024-02-15T11:45:27;15.00;89.60
26254;DHT22;53339;51.378;0.094;2024-02-15T11:48:01;15.00;89.40
26254;DHT22;53339;51.378;0.094;2024-02-15T11:50:34;15.10;89.30
26254;DHT22;53339;51.378;0.094;2024-02-15T11:53:05;15.20;89.20
26254;DHT22;53339;51.378;0.094;2024-02-15T11:55:33;15.20;88.90
26254;DHT22;53339;51.378;0.094;2024-02-15T11:58:02;15.40;89.00
26254;DHT22;53339;51.378;0.094;2024-02-15T12:00:33;15.40;88.90
26254;DHT22;53339;51.378;0.094;2024-02-15T12:03:20;15.50;88.90
26254;DHT22;53339;51.378;0.094;2024-02-15T12:06:17;15.50;88.80
26254;DHT22;53339;51.378;0.094;2024-02-15T12:09:03;15.60;88.60
26254;DHT22;53339;51.378;0.094;2024-02-15T12:11:57;15.60;88.20
26254;DHT22;53339;51.378;0.094;2024-02-15T12:14:44;15.70;88.40
26254;DHT22;53339;51.378;0.094;2024-02-15T12:17:33;15.80;88.30
26254;DHT22;53339;51.378;0.094;2024-02-15T12:20:19;15.80;88.20
26254;DHT22;53339;51.378;0.094;2024-02-15T12:22:53;15.90;88.20
26254;DHT22;53339;51.378;0.094;2024-02-15T12:25:21;16.00;88.20
26254;DHT22;53339;51.378;0.094;2024-02-15T12:27:58;16.10;88.40
26254;DHT22;53339;51.378;0.094;2024-02-15T12:30:33;16.30;88.40
26254;DHT22;53339;51.378;0.094;2024-02-15T12:33:11;16.50;88.50
26254;DHT22;53339;51.378;0.094;2024-02-15T12:35:40;16.70;88.70
26254;DHT22;53339;51.378;0.094;2024-02-15T12:38:12;16.80;87.80
26254;DHT22;53339;51.378;0.094;2024-02-15T12:40:47;16.90;87.90
26254;DHT22;53339;51.378;0.094;2024-02-15T12:43:16;17.00;85.40
26254;DHT22;53339;51.378;0.094;2024-02-15T12:45:44;17.10;84.00
26254;DHT22;53339;51.378;0.094;2024-02-15T12:48:11;17.10;84.50
26254;DHT22;53339;51.378;0.094;2024-02-15T12:50:39;17.20;84.50
26254;DHT22;53339;51.378;0.094;2024-02-15T12:53:07;17.20;84.80
26254;DHT22;53339;51.378;0.094;2024-02-15T12:55:39;17.30;84.40
26254;DHT22;53339;51.378;0.094;2024-02-15T12:58:14;17.30;83.80
26254;DHT22;53339;51.378;0.094;2024-02-15T13:00:46;17.30;82.70
26254;DHT22;53339;51.378;0.094;2024-02-15T13:03:14;17.30;83.30
26254;DHT22;53339;51.378;0.094;2024-02-15T13:05:45;17.30;82.90
26254;DHT22;53339;51.378;0.094;2024-02-15T13:08:15;17.30;83.80
26254;DHT22;53339;51.378;0.094;2024-02-15T13:10:45;17.20;83.00
26254;DHT22;53339;51.378;0.094;2024-02-15T13:13:13;17.20;83.70
26254;DHT22;53339;51.378;0.094;2024-02-15T13:15:42;17.20;84.30
26254;DHT22;53339;51.378;0.094;2024-02-15T13:18:11;17.10;83.80
26254;DHT22;53339;51.378;0.094;2024-02-15T13:20:41;17.10;83.30
26254;DHT22;53339;51.378;0.094;2024-02-15T13:23:10;17.00;83.30
26254;DHT22;53339;51.378;0.094;2024-02-15T13:25:53;17.00;82.30
26254;DHT22;53339;51.378;0.094;2024-02-15T13:28:21;17.00;81.20
26254;DHT22;53339;51.378;0.094;2024-02-15T13:30:49;17.00;82.30
26254;DHT22;53339;51.378;0.094;2024-02-15T13:33:17;17.00;81.90
26254;DHT22;53339;51.378;0.094;2024-02-15T13:35:45;16.90;81.20
26254;DHT22;53339;51.378;0.094;2024-02-15T13:38:13;16.90;81.00
26254;DHT22;53339;51.378;0.094;2024-02-15T13:40:50;16.90;81.10
26254;DHT22;53339;51.378;0.094;2024-02-15T13:43:19;17.00;81.20
26254;DHT22;53339;51.378;0.094;2024-02-15T13:45:46;17.10;82.00
26254;DHT22;53339;51.378;0.094;2024-02-15T13:48:16;17.10;82.40
26254;DHT22;53339;51.378;0.094;2024-02-15T13:50:47;17.20;82.50
26254;DHT22;53339;51.378;0.094;2024-02-15T13:53:15;17.20;82.60
26254;DHT22;53339;51.378;0.094;2024-02-15T13:55:43;17.20;82.00
26254;DHT22;53339;51.378;0.094;2024-02-15T13:58:11;17.20;82.10
26254;DHT22;53339;51.378;0.094;2024-02-15T14:00:41;17.20;82.50
26254;DHT22;53339;51.378;0.094;2024-02-15T14:03:15;17.30;82.70
26254;DHT22;53339;51.378;0.094;2024-02-15T14:05:46;17.30;82.90
26254;DHT22;53339;51.378;0.094;2024-02-15T14:08:15;17.30;82.60
26254;DHT22;53339;51.378;0.094;2024-02-15T14:10:43;17.30;82.50
26254;DHT22;53339;51.378;0.094;2024-02-15T14:13:13;17.30;83.20
26254;DHT22;53339;51.378;0.094;2024-02-15T14:15:41;17.30;83.60
26254;DHT22;53339;51.378;0.094;2024-02-15T14:18:12;17.30;83.80
26254;DHT22;53339;51.378;0.094;2024-02-15T14:20:46;17.30;84.10
26254;DHT22;53339;51.378;0.094;2024-02-15T14:23:18;17.30;84.10
26254;DHT22;53339;51.378;0.094;2024-02-15T14:25:46;17.30;84.10
26254;DHT22;53339;51.378;0.094;2024-02-15T14:28:15;17.20;84.20
26254;DHT22;53339;51.378;0.094;2024-02-15T14:30:43;17.20;84.20
26254;DHT22;53339;51.378;0.094;2024-02-15T14:33:29;17.20;83.70
26254;DHT22;53339;51.378;0.094;2024-02-15T14:35:59;17.10;82.40
26254;DHT22;53339;51.378;0.094;2024-02-15T14:38:28;17.10;82.20
26254;DHT22;53339;51.378;0.094;2024-02-15T14:40:56;17.10;83.20
26254;DHT22;53339;51.378;0.094;2024-02-15T14:43:27;17.10;83.10
26254;DHT22;53339;51.378;0.094;2024-02-15T14:45:56;17.20;83.30
26254;DHT22;53339;51.378;0.094;2024-02-15T14:48:25;17.20;83.10
26254;DHT22;53339;51.378;0.094;2024-02-15T14:50:53;17.30;83.80
26254;DHT22;53339;51.378;0.094;2024-02-15T14:53:24;17.40;83.40
26254;DHT22;53339;51.378;0.094;2024-02-15T14:55:51;17.50;83.10
26254;DHT22;53339;51.378;0.094;2024-02-15T14:58:20;17.60;82.00
26254;DHT22;53339;51.378;0.094;2024-02-15T15:00:50;17.60;81.60
26254;DHT22;53339;51.378;0.094;2024-02-15T15:03:25;17.60;80.50
26254;DHT22;53339;51.378;0.094;2024-02-15T15:05:55;17.60;81.40
26254;DHT22;53339;51.378;0.094;2024-02-15T15:08:41;17.70;80.70
26254;DHT22;53339;51.378;0.094;2024-02-15T15:11:27;17.80;77.70
26254;DHT22;53339;51.378;0.094;2024-02-15T15:14:13;17.90;78.90
26254;DHT22;53339;51.378;0.094;2024-02-15T15:16:41;17.80;78.90
26254;DHT22;53339;51.378;0.094;2024-02-15T15:19:09;17.80;78.30
26254;DHT22;53339;51.378;0.094;2024-02-15T15:21:41;17.90;78.20
26254;DHT22;53339;51.378;0.094;2024-02-15T15:24:08;17.90;72.30
26254;DHT22;53339;51.378;0.094;2024-02-15T15:26:37;17.90;70.90
26254;DHT22;53339;51.378;0.094;2024-02-15T15:29:05;17.90;70.70
26254;DHT22;53339;51.378;0.094;2024-02-15T15:31:33;17.70;70.60
26254;DHT22;53339;51.378;0.094;2024-02-15T15:34:02;17.60;71.80
26254;DHT22;53339;51.378;0.094;2024-02-15T15:36:33;17.30;71.50
26254;DHT22;53339;51.378;0.094;2024-02-15T15:39:01;17.10;73.10
26254;DHT22;53339;51.378;0.094;2024-02-15T15:41:36;16.80;73.50
26254;DHT22;53339;51.378;0.094;2024-02-15T15:44:05;16.60;74.10
26254;DHT22;53339;51.378;0.094;2024-02-15T15:46:32;16.50;74.90
26254;DHT22;53339;51.378;0.094;2024-02-15T15:49:01;16.30;75.10
26254;DHT22;53339;51.378;0.094;2024-02-15T15:51:31;16.20;76.00
26254;DHT22;53339;51.378;0.094;2024-02-15T15:54:00;16.10;75.20
26254;DHT22;53339;51.378;0.094;2024-02-15T15:56:27;15.90;76.40
26254;DHT22;53339;51.378;0.094;2024-02-15T15:58:55;15.90;76.70